Home

過去のmetar ikki

アメリカ気象局(NWS:National Weather Service)が提供しているMETAR(定時飛行場実況気象通報式) を利用して、世界で約4000箇所を超える飛行場の気象データを表示しています。. 空港の検索の機能を使用したい場合は、 地図表示 をアクセスしてください。. TAF(飛行場予報)や過去36時間のMETARの情報をGoogle Maps の情報表示の画面からリンクして一覧表示できるよう画面を作成. 過去のMETAR I 機長に作っていただきました。 感謝! 感謝! 日付を選択して、空港にチェックを入れ表示をクリックすると指定した日付の24時間のMETARが見られます。 最新の情報が上にきます 過去の METAR を取得し、表示します.(データ シーケンス) 実況通報および予報通報で使用される天気略語については、識別性を高めるために着色して表示するとともに、略語をマウスで選択することにより、その意味を表示します

世界の空港の天気 (METAR, TAF) - Time-j

Lactic acid for cheese making from Sake kasu. 5 breweries in Niigata with Haku (白) in their name collaborate KOSHINOGOHAKU. Premium Sake with 18% polishing ratio by Yoshinotomo Shuzo. Enjoy the flavor of Sake only on sparkling water. JETRO Fukushima support breweries to export to West coast US IKKI RECORDSを始めて2年が経ちました!この1年間を振り返ってみました METAR-TAF 空港 : バグダード国際空港 バグダード, イラク 緯度: 33-15-45N, 経度: 44-14-04E, 海抜: 35m 現時点の気象観測 当レポートは1時間8分前の18:00(UTC)に作成 北の風 2kt 気温 17 C 湿度 63% 気圧 1019 hPa 視程10km以上. RJTT 060800Z 05009KT 9999 FEW030 SCT170 BKN/// 16/11 Q1015 NOSIG RMK 1CU030 3AC170 A2999. 過去の天気等. Google飛行場航空写真 Wunderground天気予報. 過去48時間のMETAR. 飛行場予報(TAF). 発表時間: 3/06 16:17 JST (3/06 07:17 UTC) 予報対象時間: 6日16時 JST ~ 7日21時 JST. 風向・風速. 北 7m/s METAR TAF : 現時点の気象観測から予報, トレムセン アルジェリア 4,000以上の空港の気象観測と天気予報(METAR報とTAF報) 利用可能な観測所は地図上に黄色い丸と赤い丸で示す。丸の上にカーソルを重ねると観測所名を参照できる

METAR LFRS 230130Z AUTO 18003KT 9999 OVC017 09/08 Q1025 TEMPO 3000 BR BKN005 過去の天気等 過去48時間の天気 Google飛行場航空写真 Wunderground天気予報 ナント空港 の Taf ». METAR TAF : 現時点の気象観測から予報, マサトラン メキシコ TAF: MMMZ 252232Z 2600/2706 34008KT P6SM SCT090 TN19/2613Z TX32/2619Z FM260400 03005KT P6SM SCT250 FM261700 27006KT P6SM SCT250 BECMG 2620/2621 30012KT FM270300 33010KT P6SM SK 4,000以上の空港の気象観測と天気予報(METAR報とTAF報) 利用可能な観測所は地図上に黄色い丸と赤い丸で示す。丸の上にカーソルを重ねると観測所名を参照できる。次にクリックすると気象観測と天気予報を参照できる。 マップの切り替え:黒色「×」印の緑ボタンをクリックして拡大、「-」印の. METAR TAF : 現時点の気象観測から予報, ドゥランゴ州 メキシコ TAF: MMDO 121705Z 1218/1318 22005KT P6SM SKC FM130600 00000KT P6SM SCT030 TEMPO 1306/1309 BKN030 FM131200 00000KT P6SM SCT03 過去のトピックスはこちら お知らせ お知らせ MORE 2021.02.26 2021/2/26 閉鎖の福島カントリークラブ(福島)跡地にメガソーラー建設.

TomYokota.co

METAR RJNS 250700Z 14009KT 9999 FEW020 SCT025 BKN/// 10/04 Q1021 過去の天気等 過去48時間の天気 Google飛行場航空写真 Wunderground天気予報 静岡空港 の Taf ». 概要. 前作「 Kiss Me Baby 」以来約4か月ぶりの2014年第1弾シングル。. 表題曲「ikki!!!!!i!!」は、 百姓一揆 と、春リリースのシングル曲である事から「春闘」をモチーフとした楽曲 。. ビジュアル面においても農民・歌舞伎役者・忍者が団結し、町を苦しめる悪代官に下克上を挑む、といった内容になっている 。. それぞれカップリング曲の異なる『超!世直し盤』『超. 今年4月1日段階でゴルフ場を保有する企業グループのランキング(国内既設ゴルフ場のホール数基準)を作成した。 同段階でのトップは、アジア系ファンドのMBKパートナーズ・グループで、アコーディア・ゴルフ(AG)の44コース、936ホール(以下Hと略)、アコーディア・ゴルフ・アセット合同. IKKI NOT DEAD SHOP (SPACE SHOWER STORE (スペシャストア)) 【重要】新型コロナウイルス感染拡大に伴う配送及びカスタマー対応に関して カテゴリ 全商品 グッズ 音楽 映像 書籍 一覧ページ SHOP一覧 アーティスト一覧.

2019年7月に入社した研修生Ikkiのプロフィールを公開しています 過去のライブ配信 動画 並び替え 登録が新しい順 登録が古い順 視聴数順 ゲーム 指定なし カテゴリ 指定な

METAR Aviation Weather Automatic Decode

去年の欧州選手権で過去最低の6位に終わった時はロシアもついに低迷期に突入かと思ったが、 しっかり立て直してきたね。 ガモワ、ソコロワ頼みなのは2004年から変わらないが 「s1」に関するTwitter(ツイッター)検索結果です。ログインやフォロー不要でTwitterに投稿されたツイートをリアルタイムに検索できます

IKONOSとは? IKONOS(イコノス)は、1999年9月25日にアメリカのSPACEIMAGING社(現GeoEye社)が打ち上げたリモートセンシング衛星。表話編歴気象に関連する機器・設備 気象観測機器・.. スレの歴史↓ 嘔吐恐怖の方いますか? http://etc2.2ch.net/test/read.cgi/utu/987053922/l50. 関西地方の雪や寒気の実況・議論を楽しく語るスレです。 荒らしにはスルーか削除依頼で対応してくだ.. 警報・注意報 ttp://plus1.ctv.co.jp/weather/mf/alert.html ttp://www.jma.go.jp/jp/warn/210.ht..

日本の空港の天気 (METAR, TAF) - Time-j

東京/羽田 の空港の天気 - Metarとta

ikki!!!!!i!!とは - goo Wikipedia (ウィキペディア

Ikki to The Next Stage!! 京都編 えすとえむ×青野春秋×

  1. 日本最大のの!ランキングや口コミも豊富なネット通販、文具
  2. 【Rus】ロシア女子バレー総合 10【白きウラル山脈】 ログ速
  3. 「s1」のTwitter検索結果 - Yahoo!リアルタイム検
  4. IKONOSとは - Weblio辞
  • 早稲田大学 情報通信学科.
  • ふくろう 幸せを呼ぶ.
  • 三菱f1の悲劇.
  • パプリカ 種 タキイ.
  • インテリア会社 東京.
  • 明日 イベント 体験.
  • ギャラリーとフォトの同期.
  • 大和ビール.
  • ハプスブルク家 現在 資産.
  • クリスマス休暇 学校.
  • 相手に合わせる 英語.
  • Sasソフトウェア.
  • 児童相談所 通報 ネグレクト.
  • 積極的 意欲的 類語.
  • カナダ ロック歌手.
  • 紅ゆずる メイク.
  • Insane crazy.
  • ビデオカメラ 防水ケース.
  • おばけ イラスト リアル.
  • PENTAX K 50 ストロボ.
  • スピッツ ライブ音源.
  • コンセプト居酒屋.
  • 札幌 綿 飛んでる.
  • 美大 ランキング 日本.
  • 釜山 場所.
  • 肝臓 食事 悪い.
  • ノコギリソウ 種類.
  • So 01k hdmi出力.
  • 尿検査 中間尿.
  • 首長国 意味.
  • 若者ファッション メンズ.
  • 構文解析器 自作.
  • 手話 表情 なぜ.
  • レディーススーツを着る 男.
  • カメレオン 視力.
  • うさぎ パイナップルの芯.
  • 関根麻里 本名.
  • 中学生 冬服 男子.
  • 会津若松 アウトレット.
  • フォルダが消えた スマホ.
  • キッズ フォーマルシューズ 男の子.